sensor_id;sensor_type;location;lat;lon;timestamp;P1;durP1;ratioP1;P2;durP2;ratioP2
4375;SDS011;2202;50.866;12.750;2023-04-06T00:00:26;11.33;;;10.10;;
4375;SDS011;2202;50.866;12.750;2023-04-06T00:02:52;10.20;;;9.10;;
4375;SDS011;2202;50.866;12.750;2023-04-06T00:05:21;11.47;;;10.07;;
4375;SDS011;2202;50.866;12.750;2023-04-06T00:07:48;23.17;;;9.00;;
4375;SDS011;2202;50.866;12.750;2023-04-06T00:10:15;10.93;;;9.83;;
4375;SDS011;2202;50.866;12.750;2023-04-06T00:12:44;12.90;;;10.17;;
4375;SDS011;2202;50.866;12.750;2023-04-06T00:15:11;11.77;;;9.10;;
4375;SDS011;2202;50.866;12.750;2023-04-06T00:17:37;11.20;;;10.20;;
4375;SDS011;2202;50.866;12.750;2023-04-06T00:20:05;10.37;;;9.33;;
4375;SDS011;2202;50.866;12.750;2023-04-06T00:22:33;10.37;;;9.50;;
4375;SDS011;2202;50.866;12.750;2023-04-06T00:25:00;10.30;;;9.20;;
4375;SDS011;2202;50.866;12.750;2023-04-06T00:27:27;12.63;;;8.93;;
4375;SDS011;2202;50.866;12.750;2023-04-06T00:29:56;10.83;;;9.60;;
4375;SDS011;2202;50.866;12.750;2023-04-06T00:32:23;11.33;;;10.27;;
4375;SDS011;2202;50.866;12.750;2023-04-06T00:34:50;10.37;;;9.27;;
4375;SDS011;2202;50.866;12.750;2023-04-06T00:37:17;10.03;;;9.13;;
4375;SDS011;2202;50.866;12.750;2023-04-06T00:39:44;18.03;;;10.10;;
4375;SDS011;2202;50.866;12.750;2023-04-06T00:42:11;10.97;;;10.03;;
4375;SDS011;2202;50.866;12.750;2023-04-06T00:44:39;12.73;;;10.60;;
4375;SDS011;2202;50.866;12.750;2023-04-06T00:47:08;12.67;;;10.10;;
4375;SDS011;2202;50.866;12.750;2023-04-06T00:49:35;10.70;;;9.70;;
4375;SDS011;2202;50.866;12.750;2023-04-06T00:52:02;10.67;;;9.60;;
4375;SDS011;2202;50.866;12.750;2023-04-06T00:54:29;10.60;;;9.53;;
4375;SDS011;2202;50.866;12.750;2023-04-06T00:56:56;10.37;;;9.27;;
4375;SDS011;2202;50.866;12.750;2023-04-06T00:59:24;10.37;;;9.27;;
4375;SDS011;2202;50.866;12.750;2023-04-06T01:01:52;11.37;;;10.27;;
4375;SDS011;2202;50.866;12.750;2023-04-06T01:04:21;14.17;;;8.93;;
4375;SDS011;2202;50.866;12.750;2023-04-06T01:06:48;10.70;;;9.80;;
4375;SDS011;2202;50.866;12.750;2023-04-06T01:09:15;12.00;;;9.10;;
4375;SDS011;2202;50.866;12.750;2023-04-06T01:11:42;11.50;;;9.40;;
4375;SDS011;2202;50.866;12.750;2023-04-06T01:14:09;11.23;;;9.03;;
4375;SDS011;2202;50.866;12.750;2023-04-06T01:16:37;13.50;;;10.10;;
4375;SDS011;2202;50.866;12.750;2023-04-06T01:19:06;10.70;;;9.63;;
4375;SDS011;2202;50.866;12.750;2023-04-06T01:21:36;12.70;;;9.17;;
4375;SDS011;2202;50.866;12.750;2023-04-06T01:24:04;10.23;;;9.33;;
4375;SDS011;2202;50.866;12.750;2023-04-06T01:26:32;10.00;;;9.10;;
4375;SDS011;2202;50.866;12.750;2023-04-06T01:29:01;12.90;;;9.93;;
4375;SDS011;2202;50.866;12.750;2023-04-06T01:31:28;10.20;;;9.30;;
4375;SDS011;2202;50.866;12.750;2023-04-06T01:33:56;10.63;;;9.53;;
4375;SDS011;2202;50.866;12.750;2023-04-06T01:36:22;10.70;;;9.63;;
4375;SDS011;2202;50.866;12.750;2023-04-06T01:38:50;10.33;;;9.33;;
4375;SDS011;2202;50.866;12.750;2023-04-06T01:41:18;10.23;;;9.23;;
4375;SDS011;2202;50.866;12.750;2023-04-06T01:43:46;10.83;;;9.27;;
4375;SDS011;2202;50.866;12.750;2023-04-06T01:46:14;9.77;;;8.77;;
4375;SDS011;2202;50.866;12.750;2023-04-06T01:48:41;12.73;;;9.37;;
4375;SDS011;2202;50.866;12.750;2023-04-06T01:51:08;11.90;;;9.17;;
4375;SDS011;2202;50.866;12.750;2023-04-06T01:53:35;11.53;;;9.40;;
4375;SDS011;2202;50.866;12.750;2023-04-06T01:56:02;11.10;;;9.90;;
4375;SDS011;2202;50.866;12.750;2023-04-06T01:58:30;12.27;;;10.47;;
4375;SDS011;2202;50.866;12.750;2023-04-06T02:00:57;11.03;;;9.80;;
4375;SDS011;2202;50.866;12.750;2023-04-06T02:03:25;11.53;;;10.33;;
4375;SDS011;2202;50.866;12.750;2023-04-06T02:05:52;12.60;;;10.30;;
4375;SDS011;2202;50.866;12.750;2023-04-06T02:08:19;10.43;;;9.30;;
4375;SDS011;2202;50.866;12.750;2023-04-06T02:10:45;13.50;;;10.50;;
4375;SDS011;2202;50.866;12.750;2023-04-06T02:13:12;11.80;;;10.67;;
4375;SDS011;2202;50.866;12.750;2023-04-06T02:15:41;10.70;;;9.63;;
4375;SDS011;2202;50.866;12.750;2023-04-06T02:18:08;11.50;;;10.30;;
4375;SDS011;2202;50.866;12.750;2023-04-06T02:20:35;13.13;;;9.60;;
4375;SDS011;2202;50.866;12.750;2023-04-06T02:23:02;13.63;;;12.17;;
4375;SDS011;2202;50.866;12.750;2023-04-06T02:25:28;13.30;;;11.23;;
4375;SDS011;2202;50.866;12.750;2023-04-06T02:27:55;11.07;;;9.97;;
4375;SDS011;2202;50.866;12.750;2023-04-06T02:30:22;14.83;;;10.87;;
4375;SDS011;2202;50.866;12.750;2023-04-06T02:32:50;10.63;;;9.60;;
4375;SDS011;2202;50.866;12.750;2023-04-06T02:35:17;10.80;;;9.80;;
4375;SDS011;2202;50.866;12.750;2023-04-06T02:37:44;10.70;;;9.70;;
4375;SDS011;2202;50.866;12.750;2023-04-06T02:40:11;11.13;;;10.17;;
4375;SDS011;2202;50.866;12.750;2023-04-06T02:42:39;10.70;;;9.80;;
4375;SDS011;2202;50.866;12.750;2023-04-06T02:45:06;10.53;;;9.40;;
4375;SDS011;2202;50.866;12.750;2023-04-06T02:47:34;11.00;;;9.80;;
4375;SDS011;2202;50.866;12.750;2023-04-06T02:50:02;10.80;;;9.70;;
4375;SDS011;2202;50.866;12.750;2023-04-06T02:52:30;10.03;;;9.10;;
4375;SDS011;2202;50.866;12.750;2023-04-06T02:54:57;12.03;;;9.93;;
4375;SDS011;2202;50.866;12.750;2023-04-06T02:57:24;10.63;;;9.47;;
4375;SDS011;2202;50.866;12.750;2023-04-06T02:59:50;12.60;;;11.40;;
4375;SDS011;2202;50.866;12.750;2023-04-06T03:02:17;13.93;;;10.10;;
4375;SDS011;2202;50.866;12.750;2023-04-06T03:04:44;10.73;;;9.73;;
4375;SDS011;2202;50.866;12.750;2023-04-06T03:07:12;10.40;;;9.37;;
4375;SDS011;2202;50.866;12.750;2023-04-06T03:09:39;12.63;;;10.07;;
4375;SDS011;2202;50.866;12.750;2023-04-06T03:12:06;11.90;;;10.70;;
4375;SDS011;2202;50.866;12.750;2023-04-06T03:14:33;11.33;;;10.23;;
4375;SDS011;2202;50.866;12.750;2023-04-06T03:17:00;10.87;;;9.93;;
4375;SDS011;2202;50.866;12.750;2023-04-06T03:19:27;11.40;;;10.30;;
4375;SDS011;2202;50.866;12.750;2023-04-06T03:21:54;13.93;;;10.20;;
4375;SDS011;2202;50.866;12.750;2023-04-06T03:24:22;10.57;;;9.57;;
4375;SDS011;2202;50.866;12.750;2023-04-06T03:26:49;12.60;;;11.30;;
4375;SDS011;2202;50.866;12.750;2023-04-06T03:29:16;12.37;;;11.27;;
4375;SDS011;2202;50.866;12.750;2023-04-06T03:31:43;12.83;;;11.53;;
4375;SDS011;2202;50.866;12.750;2023-04-06T03:34:10;11.57;;;10.47;;
4375;SDS011;2202;50.866;12.750;2023-04-06T03:36:37;12.07;;;10.90;;
4375;SDS011;2202;50.866;12.750;2023-04-06T03:39:04;10.60;;;9.60;;
4375;SDS011;2202;50.866;12.750;2023-04-06T03:41:32;12.70;;;11.17;;
4375;SDS011;2202;50.866;12.750;2023-04-06T03:43:59;16.83;;;13.10;;
4375;SDS011;2202;50.866;12.750;2023-04-06T03:46:26;13.57;;;12.17;;
4375;SDS011;2202;50.866;12.750;2023-04-06T03:48:52;13.40;;;10.80;;
4375;SDS011;2202;50.866;12.750;2023-04-06T03:51:19;12.37;;;11.27;;
4375;SDS011;2202;50.866;12.750;2023-04-06T03:53:46;12.87;;;10.90;;
4375;SDS011;2202;50.866;12.750;2023-04-06T03:56:13;14.10;;;10.70;;
4375;SDS011;2202;50.866;12.750;2023-04-06T03:58:42;12.13;;;10.40;;
4375;SDS011;2202;50.866;12.750;2023-04-06T04:01:10;15.90;;;12.53;;
4375;SDS011;2202;50.866;12.750;2023-04-06T04:03:37;13.53;;;12.10;;
4375;SDS011;2202;50.866;12.750;2023-04-06T04:06:04;12.93;;;11.80;;
4375;SDS011;2202;50.866;12.750;2023-04-06T04:08:31;12.47;;;11.27;;
4375;SDS011;2202;50.866;12.750;2023-04-06T04:10:57;14.20;;;12.77;;
4375;SDS011;2202;50.866;12.750;2023-04-06T04:13:24;13.10;;;11.77;;
4375;SDS011;2202;50.866;12.750;2023-04-06T04:15:53;13.57;;;12.17;;
4375;SDS011;2202;50.866;12.750;2023-04-06T04:18:20;14.10;;;12.60;;
4375;SDS011;2202;50.866;12.750;2023-04-06T04:20:47;16.20;;;13.60;;
4375;SDS011;2202;50.866;12.750;2023-04-06T04:23:13;13.23;;;11.93;;
4375;SDS011;2202;50.866;12.750;2023-04-06T04:25:40;15.87;;;12.27;;
4375;SDS011;2202;50.866;12.750;2023-04-06T04:28:07;16.43;;;13.07;;
4375;SDS011;2202;50.866;12.750;2023-04-06T04:30:34;18.63;;;13.07;;
4375;SDS011;2202;50.866;12.750;2023-04-06T04:33:02;18.27;;;12.90;;
4375;SDS011;2202;50.866;12.750;2023-04-06T04:35:29;20.40;;;13.70;;
4375;SDS011;2202;50.866;12.750;2023-04-06T04:37:56;17.30;;;15.07;;
4375;SDS011;2202;50.866;12.750;2023-04-06T04:40:23;19.63;;;13.67;;
4375;SDS011;2202;50.866;12.750;2023-04-06T04:42:50;26.23;;;15.00;;
4375;SDS011;2202;50.866;12.750;2023-04-06T04:45:17;28.07;;;15.50;;
4375;SDS011;2202;50.866;12.750;2023-04-06T04:47:44;22.70;;;14.80;;
4375;SDS011;2202;50.866;12.750;2023-04-06T04:50:12;21.03;;;13.87;;
4375;SDS011;2202;50.866;12.750;2023-04-06T04:52:39;16.43;;;13.07;;
4375;SDS011;2202;50.866;12.750;2023-04-06T04:55:06;16.00;;;13.97;;
4375;SDS011;2202;50.866;12.750;2023-04-06T04:57:33;20.30;;;13.67;;
4375;SDS011;2202;50.866;12.750;2023-04-06T05:00:00;17.13;;;13.90;;
4375;SDS011;2202;50.866;12.750;2023-04-06T05:02:27;15.27;;;13.20;;
4375;SDS011;2202;50.866;12.750;2023-04-06T05:04:54;14.03;;;12.53;;
4375;SDS011;2202;50.866;12.750;2023-04-06T05:07:22;20.13;;;13.67;;
4375;SDS011;2202;50.866;12.750;2023-04-06T05:09:49;14.87;;;13.37;;
4375;SDS011;2202;50.866;12.750;2023-04-06T05:12:18;16.27;;;14.23;;
4375;SDS011;2202;50.866;12.750;2023-04-06T05:14:45;15.67;;;14.00;;
4375;SDS011;2202;50.866;12.750;2023-04-06T05:17:12;16.93;;;13.97;;
4375;SDS011;2202;50.866;12.750;2023-04-06T05:19:39;18.00;;;13.67;;
4375;SDS011;2202;50.866;12.750;2023-04-06T05:22:06;17.30;;;14.93;;
4375;SDS011;2202;50.866;12.750;2023-04-06T05:24:35;20.03;;;16.10;;
4375;SDS011;2202;50.866;12.750;2023-04-06T05:27:02;19.07;;;14.37;;
4375;SDS011;2202;50.866;12.750;2023-04-06T05:29:29;22.20;;;15.00;;
4375;SDS011;2202;50.866;12.750;2023-04-06T05:31:56;18.03;;;16.10;;
4375;SDS011;2202;50.866;12.750;2023-04-06T05:34:23;23.63;;;16.23;;
4375;SDS011;2202;50.866;12.750;2023-04-06T05:36:50;17.43;;;15.60;;
4375;SDS011;2202;50.866;12.750;2023-04-06T05:39:16;18.33;;;15.17;;
4375;SDS011;2202;50.866;12.750;2023-04-06T05:41:45;24.53;;;16.40;;
4375;SDS011;2202;50.866;12.750;2023-04-06T05:44:12;18.27;;;15.33;;
4375;SDS011;2202;50.866;12.750;2023-04-06T05:46:38;19.27;;;14.90;;
4375;SDS011;2202;50.866;12.750;2023-04-06T05:49:06;19.80;;;16.10;;
4375;SDS011;2202;50.866;12.750;2023-04-06T05:51:32;20.20;;;16.27;;
4375;SDS011;2202;50.866;12.750;2023-04-06T05:53:59;22.43;;;16.00;;
4375;SDS011;2202;50.866;12.750;2023-04-06T05:56:26;25.43;;;16.40;;
4375;SDS011;2202;50.866;12.750;2023-04-06T05:58:56;19.43;;;16.30;;
4375;SDS011;2202;50.866;12.750;2023-04-06T06:01:23;20.90;;;15.60;;
4375;SDS011;2202;50.866;12.750;2023-04-06T06:03:50;21.53;;;14.20;;
4375;SDS011;2202;50.866;12.750;2023-04-06T06:06:17;14.63;;;13.30;;
4375;SDS011;2202;50.866;12.750;2023-04-06T06:08:44;14.20;;;12.30;;
4375;SDS011;2202;50.866;12.750;2023-04-06T06:11:11;12.80;;;11.60;;
4375;SDS011;2202;50.866;12.750;2023-04-06T06:13:38;13.03;;;11.70;;
4375;SDS011;2202;50.866;12.750;2023-04-06T06:16:06;12.13;;;10.93;;
4375;SDS011;2202;50.866;12.750;2023-04-06T06:18:33;11.87;;;10.63;;
4375;SDS011;2202;50.866;12.750;2023-04-06T06:21:01;11.60;;;10.50;;
4375;SDS011;2202;50.866;12.750;2023-04-06T06:23:29;12.00;;;10.00;;
4375;SDS011;2202;50.866;12.750;2023-04-06T06:25:55;11.47;;;9.97;;
4375;SDS011;2202;50.866;12.750;2023-04-06T06:28:23;11.27;;;10.17;;
4375;SDS011;2202;50.866;12.750;2023-04-06T06:30:51;12.47;;;11.10;;
4375;SDS011;2202;50.866;12.750;2023-04-06T06:33:19;12.10;;;10.90;;
4375;SDS011;2202;50.866;12.750;2023-04-06T06:35:46;12.00;;;10.10;;
4375;SDS011;2202;50.866;12.750;2023-04-06T06:38:13;12.07;;;10.80;;
4375;SDS011;2202;50.866;12.750;2023-04-06T06:40:40;11.20;;;10.20;;
4375;SDS011;2202;50.866;12.750;2023-04-06T06:43:07;11.77;;;10.67;;
4375;SDS011;2202;50.866;12.750;2023-04-06T06:45:34;12.23;;;10.93;;
4375;SDS011;2202;50.866;12.750;2023-04-06T06:48:01;12.00;;;10.70;;
4375;SDS011;2202;50.866;12.750;2023-04-06T06:50:29;10.70;;;9.80;;
4375;SDS011;2202;50.866;12.750;2023-04-06T06:52:56;13.70;;;12.40;;
4375;SDS011;2202;50.866;12.750;2023-04-06T06:55:23;10.80;;;9.70;;
4375;SDS011;2202;50.866;12.750;2023-04-06T06:57:50;12.17;;;9.90;;
4375;SDS011;2202;50.866;12.750;2023-04-06T07:00:17;9.40;;;8.50;;
4375;SDS011;2202;50.866;12.750;2023-04-06T07:02:45;10.23;;;9.23;;
4375;SDS011;2202;50.866;12.750;2023-04-06T07:05:12;11.30;;;9.73;;
4375;SDS011;2202;50.866;12.750;2023-04-06T07:07:41;11.30;;;9.10;;
4375;SDS011;2202;50.866;12.750;2023-04-06T07:10:08;10.00;;;9.00;;
4375;SDS011;2202;50.866;12.750;2023-04-06T07:12:36;10.60;;;9.40;;
4375;SDS011;2202;50.866;12.750;2023-04-06T07:15:03;9.87;;;8.87;;
4375;SDS011;2202;50.866;12.750;2023-04-06T07:17:30;10.80;;;9.60;;
4375;SDS011;2202;50.866;12.750;2023-04-06T07:19:57;10.10;;;9.20;;
4375;SDS011;2202;50.866;12.750;2023-04-06T07:22:24;10.23;;;9.23;;
4375;SDS011;2202;50.866;12.750;2023-04-06T07:24:52;11.33;;;10.23;;
4375;SDS011;2202;50.866;12.750;2023-04-06T07:27:19;9.87;;;8.87;;
4375;SDS011;2202;50.866;12.750;2023-04-06T07:29:46;10.50;;;9.27;;
4375;SDS011;2202;50.866;12.750;2023-04-06T07:32:13;11.87;;;9.67;;
4375;SDS011;2202;50.866;12.750;2023-04-06T07:34:40;10.00;;;9.03;;
4375;SDS011;2202;50.866;12.750;2023-04-06T07:37:07;9.73;;;8.93;;
4375;SDS011;2202;50.866;12.750;2023-04-06T07:39:34;12.70;;;9.20;;
4375;SDS011;2202;50.866;12.750;2023-04-06T07:42:02;12.33;;;9.37;;
4375;SDS011;2202;50.866;12.750;2023-04-06T07:44:29;10.20;;;8.27;;
4375;SDS011;2202;50.866;12.750;2023-04-06T07:46:56;10.43;;;8.50;;
4375;SDS011;2202;50.866;12.750;2023-04-06T07:49:23;9.13;;;8.23;;
4375;SDS011;2202;50.866;12.750;2023-04-06T07:51:50;9.57;;;8.53;;
4375;SDS011;2202;50.866;12.750;2023-04-06T07:54:17;10.77;;;8.20;;
4375;SDS011;2202;50.866;12.750;2023-04-06T07:56:44;9.30;;;7.83;;
4375;SDS011;2202;50.866;12.750;2023-04-06T07:59:12;10.50;;;8.43;;
4375;SDS011;2202;50.866;12.750;2023-04-06T08:01:39;8.80;;;8.03;;
4375;SDS011;2202;50.866;12.750;2023-04-06T08:04:07;8.27;;;7.47;;
4375;SDS011;2202;50.866;12.750;2023-04-06T08:06:33;9.07;;;8.13;;
4375;SDS011;2202;50.866;12.750;2023-04-06T08:09:01;9.03;;;7.97;;
4375;SDS011;2202;50.866;12.750;2023-04-06T08:11:28;9.17;;;8.17;;
4375;SDS011;2202;50.866;12.750;2023-04-06T08:13:56;10.60;;;9.20;;
4375;SDS011;2202;50.866;12.750;2023-04-06T08:16:24;9.00;;;7.90;;
4375;SDS011;2202;50.866;12.750;2023-04-06T08:18:51;12.10;;;8.43;;
4375;SDS011;2202;50.866;12.750;2023-04-06T08:21:18;10.47;;;8.37;;
4375;SDS011;2202;50.866;12.750;2023-04-06T08:23:45;9.90;;;8.90;;
4375;SDS011;2202;50.866;12.750;2023-04-06T08:26:12;10.17;;;9.27;;
4375;SDS011;2202;50.866;12.750;2023-04-06T08:28:39;9.70;;;8.77;;
4375;SDS011;2202;50.866;12.750;2023-04-06T08:31:06;10.27;;;8.63;;
4375;SDS011;2202;50.866;12.750;2023-04-06T08:33:34;9.30;;;8.00;;
4375;SDS011;2202;50.866;12.750;2023-04-06T08:36:07;21.00;;;18.53;;
4375;SDS011;2202;50.866;12.750;2023-04-06T08:38:35;8.10;;;7.37;;
4375;SDS011;2202;50.866;12.750;2023-04-06T08:41:06;9.07;;;7.20;;
4375;SDS011;2202;50.866;12.750;2023-04-06T08:43:35;9.83;;;8.43;;
4375;SDS011;2202;50.866;12.750;2023-04-06T08:46:07;9.03;;;8.13;;
4375;SDS011;2202;50.866;12.750;2023-04-06T08:48:36;9.27;;;8.40;;
4375;SDS011;2202;50.866;12.750;2023-04-06T08:51:05;9.33;;;8.00;;
4375;SDS011;2202;50.866;12.750;2023-04-06T08:53:32;8.60;;;7.70;;
4375;SDS011;2202;50.866;12.750;2023-04-06T08:55:59;8.00;;;7.20;;
4375;SDS011;2202;50.866;12.750;2023-04-06T08:58:28;8.77;;;7.40;;
4375;SDS011;2202;50.866;12.750;2023-04-06T09:01:06;8.27;;;7.47;;
4375;SDS011;2202;50.866;12.750;2023-04-06T09:03:37;8.57;;;7.40;;
4375;SDS011;2202;50.866;12.750;2023-04-06T09:06:06;8.50;;;7.70;;
4375;SDS011;2202;50.866;12.750;2023-04-06T09:08:33;7.90;;;7.30;;
4375;SDS011;2202;50.866;12.750;2023-04-06T09:11:01;8.60;;;7.70;;
4375;SDS011;2202;50.866;12.750;2023-04-06T09:13:28;9.97;;;7.67;;
4375;SDS011;2202;50.866;12.750;2023-04-06T09:15:58;10.03;;;7.13;;
4375;SDS011;2202;50.866;12.750;2023-04-06T09:18:29;9.80;;;8.10;;
4375;SDS011;2202;50.866;12.750;2023-04-06T09:20:59;8.43;;;7.67;;
4375;SDS011;2202;50.866;12.750;2023-04-06T09:23:27;8.60;;;7.13;;
4375;SDS011;2202;50.866;12.750;2023-04-06T09:26:04;8.30;;;7.37;;
4375;SDS011;2202;50.866;12.750;2023-04-06T09:28:41;8.17;;;7.33;;
4375;SDS011;2202;50.866;12.750;2023-04-06T09:31:08;8.77;;;7.97;;
4375;SDS011;2202;50.866;12.750;2023-04-06T09:33:37;8.33;;;7.43;;
4375;SDS011;2202;50.866;12.750;2023-04-06T09:36:06;8.03;;;7.07;;
4375;SDS011;2202;50.866;12.750;2023-04-06T09:38:35;7.53;;;6.73;;
4375;SDS011;2202;50.866;12.750;2023-04-06T09:41:03;7.80;;;6.50;;
4375;SDS011;2202;50.866;12.750;2023-04-06T09:43:30;8.80;;;7.97;;
4375;SDS011;2202;50.866;12.750;2023-04-06T09:45:57;8.30;;;7.50;;
4375;SDS011;2202;50.866;12.750;2023-04-06T09:48:28;9.30;;;8.40;;
4375;SDS011;2202;50.866;12.750;2023-04-06T09:50:59;11.67;;;7.83;;
4375;SDS011;2202;50.866;12.750;2023-04-06T09:53:30;8.53;;;7.63;;
4375;SDS011;2202;50.866;12.750;2023-04-06T09:56:02;10.80;;;7.97;;
4375;SDS011;2202;50.866;12.750;2023-04-06T09:58:33;8.63;;;7.50;;
4375;SDS011;2202;50.866;12.750;2023-04-06T10:01:08;9.90;;;8.00;;
4375;SDS011;2202;50.866;12.750;2023-04-06T10:03:40;9.37;;;8.47;;
4375;SDS011;2202;50.866;12.750;2023-04-06T10:06:14;11.07;;;8.83;;
4375;SDS011;2202;50.866;12.750;2023-04-06T10:08:47;8.83;;;7.93;;
4375;SDS011;2202;50.866;12.750;2023-04-06T10:11:16;11.03;;;8.57;;
4375;SDS011;2202;50.866;12.750;2023-04-06T10:13:43;11.30;;;8.97;;
4375;SDS011;2202;50.866;12.750;2023-04-06T10:16:12;10.47;;;9.00;;
4375;SDS011;2202;50.866;12.750;2023-04-06T10:18:41;8.20;;;7.20;;
4375;SDS011;2202;50.866;12.750;2023-04-06T10:21:15;10.20;;;8.50;;
4375;SDS011;2202;50.866;12.750;2023-04-06T10:23:48;8.43;;;7.53;;
4375;SDS011;2202;50.866;12.750;2023-04-06T10:26:19;9.03;;;7.93;;
4375;SDS011;2202;50.866;12.750;2023-04-06T10:28:47;10.10;;;8.00;;
4375;SDS011;2202;50.866;12.750;2023-04-06T10:31:23;10.50;;;8.07;;
4375;SDS011;2202;50.866;12.750;2023-04-06T10:33:54;8.77;;;7.87;;
4375;SDS011;2202;50.866;12.750;2023-04-06T10:36:22;10.77;;;7.30;;
4375;SDS011;2202;50.866;12.750;2023-04-06T10:38:55;7.93;;;6.87;;
4375;SDS011;2202;50.866;12.750;2023-04-06T10:41:23;8.07;;;6.53;;
4375;SDS011;2202;50.866;12.750;2023-04-06T10:43:54;8.40;;;7.60;;
4375;SDS011;2202;50.866;12.750;2023-04-06T10:46:24;6.37;;;5.73;;
4375;SDS011;2202;50.866;12.750;2023-04-06T10:48:52;9.90;;;7.17;;
4375;SDS011;2202;50.866;12.750;2023-04-06T10:51:19;10.07;;;8.50;;
4375;SDS011;2202;50.866;12.750;2023-04-06T10:53:52;10.23;;;8.27;;
4375;SDS011;2202;50.866;12.750;2023-04-06T10:56:22;10.00;;;8.47;;
4375;SDS011;2202;50.866;12.750;2023-04-06T10:58:53;9.30;;;7.90;;
4375;SDS011;2202;50.866;12.750;2023-04-06T11:01:22;9.03;;;8.10;;
4375;SDS011;2202;50.866;12.750;2023-04-06T11:03:52;9.53;;;7.93;;
4375;SDS011;2202;50.866;12.750;2023-04-06T11:06:21;10.73;;;8.40;;
4375;SDS011;2202;50.866;12.750;2023-04-06T11:08:48;8.90;;;7.47;;
4375;SDS011;2202;50.866;12.750;2023-04-06T11:11:18;14.53;;;7.73;;
4375;SDS011;2202;50.866;12.750;2023-04-06T11:13:48;9.27;;;7.90;;
4375;SDS011;2202;50.866;12.750;2023-04-06T11:16:16;8.67;;;7.80;;
4375;SDS011;2202;50.866;12.750;2023-04-06T11:18:47;10.10;;;8.30;;
4375;SDS011;2202;50.866;12.750;2023-04-06T11:21:18;12.70;;;8.70;;
4375;SDS011;2202;50.866;12.750;2023-04-06T11:23:46;9.23;;;8.33;;
4375;SDS011;2202;50.866;12.750;2023-04-06T11:26:13;9.37;;;8.47;;
4375;SDS011;2202;50.866;12.750;2023-04-06T11:28:41;8.70;;;7.80;;
4375;SDS011;2202;50.866;12.750;2023-04-06T11:31:09;10.03;;;8.23;;
4375;SDS011;2202;50.866;12.750;2023-04-06T11:33:36;8.70;;;7.80;;
4375;SDS011;2202;50.866;12.750;2023-04-06T11:36:04;10.83;;;8.00;;
4375;SDS011;2202;50.866;12.750;2023-04-06T11:38:32;10.07;;;8.93;;
4375;SDS011;2202;50.866;12.750;2023-04-06T11:40:59;10.33;;;8.43;;
4375;SDS011;2202;50.866;12.750;2023-04-06T11:43:27;13.87;;;8.40;;
4375;SDS011;2202;50.866;12.750;2023-04-06T11:46:02;9.80;;;8.83;;
4375;SDS011;2202;50.866;12.750;2023-04-06T11:48:31;10.73;;;8.23;;
4375;SDS011;2202;50.866;12.750;2023-04-06T11:50:59;9.40;;;8.50;;
4375;SDS011;2202;50.866;12.750;2023-04-06T11:53:27;8.87;;;8.07;;
4375;SDS011;2202;50.866;12.750;2023-04-06T11:55:54;9.33;;;8.53;;
4375;SDS011;2202;50.866;12.750;2023-04-06T11:58:21;13.27;;;11.87;;
4375;SDS011;2202;50.866;12.750;2023-04-06T12:00:48;10.93;;;9.00;;
4375;SDS011;2202;50.866;12.750;2023-04-06T12:03:17;9.00;;;7.87;;
4375;SDS011;2202;50.866;12.750;2023-04-06T12:05:44;10.47;;;9.37;;
4375;SDS011;2202;50.866;12.750;2023-04-06T12:08:11;11.20;;;9.27;;
4375;SDS011;2202;50.866;12.750;2023-04-06T12:10:38;9.33;;;7.93;;
4375;SDS011;2202;50.866;12.750;2023-04-06T12:13:05;8.97;;;7.50;;
4375;SDS011;2202;50.866;12.750;2023-04-06T12:15:32;11.10;;;7.97;;
4375;SDS011;2202;50.866;12.750;2023-04-06T12:17:59;9.63;;;8.53;;
4375;SDS011;2202;50.866;12.750;2023-04-06T12:20:27;10.77;;;9.10;;
4375;SDS011;2202;50.866;12.750;2023-04-06T12:22:54;9.20;;;7.90;;
4375;SDS011;2202;50.866;12.750;2023-04-06T12:25:21;9.33;;;8.37;;
4375;SDS011;2202;50.866;12.750;2023-04-06T12:27:48;9.10;;;8.00;;
4375;SDS011;2202;50.866;12.750;2023-04-06T12:30:15;10.77;;;8.80;;
4375;SDS011;2202;50.866;12.750;2023-04-06T12:32:42;8.17;;;7.37;;
4375;SDS011;2202;50.866;12.750;2023-04-06T12:35:09;8.63;;;7.73;;
4375;SDS011;2202;50.866;12.750;2023-04-06T12:37:42;9.50;;;8.57;;
4375;SDS011;2202;50.866;12.750;2023-04-06T12:40:09;10.90;;;9.20;;
4375;SDS011;2202;50.866;12.750;2023-04-06T12:42:38;8.43;;;7.63;;
4375;SDS011;2202;50.866;12.750;2023-04-06T12:45:06;9.53;;;7.87;;
4375;SDS011;2202;50.866;12.750;2023-04-06T12:47:34;14.20;;;8.80;;
4375;SDS011;2202;50.866;12.750;2023-04-06T12:50:02;12.37;;;8.47;;
4375;SDS011;2202;50.866;12.750;2023-04-06T12:52:31;12.50;;;8.03;;
4375;SDS011;2202;50.866;12.750;2023-04-06T12:55:01;9.03;;;7.50;;
4375;SDS011;2202;50.866;12.750;2023-04-06T12:57:30;8.10;;;7.30;;
4375;SDS011;2202;50.866;12.750;2023-04-06T12:59:57;9.63;;;8.17;;
4375;SDS011;2202;50.866;12.750;2023-04-06T13:02:24;9.80;;;8.00;;
4375;SDS011;2202;50.866;12.750;2023-04-06T13:04:51;8.43;;;7.33;;
4375;SDS011;2202;50.866;12.750;2023-04-06T13:07:18;9.03;;;8.13;;
4375;SDS011;2202;50.866;12.750;2023-04-06T13:09:45;10.67;;;9.00;;
4375;SDS011;2202;50.866;12.750;2023-04-06T13:12:15;9.40;;;8.50;;
4375;SDS011;2202;50.866;12.750;2023-04-06T13:14:42;9.63;;;8.63;;
4375;SDS011;2202;50.866;12.750;2023-04-06T13:17:09;9.60;;;8.57;;
4375;SDS011;2202;50.866;12.750;2023-04-06T13:19:36;9.50;;;7.87;;
4375;SDS011;2202;50.866;12.750;2023-04-06T13:22:03;9.30;;;7.80;;
4375;SDS011;2202;50.866;12.750;2023-04-06T13:24:30;10.27;;;9.10;;
4375;SDS011;2202;50.866;12.750;2023-04-06T13:26:57;8.47;;;7.57;;
4375;SDS011;2202;50.866;12.750;2023-04-06T13:29:25;10.83;;;8.93;;
4375;SDS011;2202;50.866;12.750;2023-04-06T13:31:52;11.40;;;8.43;;
4375;SDS011;2202;50.866;12.750;2023-04-06T13:34:19;8.97;;;8.07;;
4375;SDS011;2202;50.866;12.750;2023-04-06T13:36:46;12.57;;;9.60;;
4375;SDS011;2202;50.866;12.750;2023-04-06T13:39:13;14.83;;;9.50;;
4375;SDS011;2202;50.866;12.750;2023-04-06T13:41:40;10.60;;;9.60;;
4375;SDS011;2202;50.866;12.750;2023-04-06T13:44:07;9.80;;;8.40;;
4375;SDS011;2202;50.866;12.750;2023-04-06T13:46:35;11.80;;;9.63;;
4375;SDS011;2202;50.866;12.750;2023-04-06T13:49:02;9.20;;;8.30;;
4375;SDS011;2202;50.866;12.750;2023-04-06T13:51:29;8.60;;;7.67;;
4375;SDS011;2202;50.866;12.750;2023-04-06T13:53:56;9.80;;;8.80;;
4375;SDS011;2202;50.866;12.750;2023-04-06T13:56:23;9.03;;;7.80;;
4375;SDS011;2202;50.866;12.750;2023-04-06T13:58:53;9.90;;;8.87;;
4375;SDS011;2202;50.866;12.750;2023-04-06T14:01:19;10.10;;;8.80;;
4375;SDS011;2202;50.866;12.750;2023-04-06T14:03:49;9.70;;;8.67;;
4375;SDS011;2202;50.866;12.750;2023-04-06T14:06:16;9.40;;;8.50;;
4375;SDS011;2202;50.866;12.750;2023-04-06T14:08:42;10.63;;;9.63;;
4375;SDS011;2202;50.866;12.750;2023-04-06T14:11:11;11.00;;;9.20;;
4375;SDS011;2202;50.866;12.750;2023-04-06T14:13:38;9.33;;;8.30;;
4375;SDS011;2202;50.866;12.750;2023-04-06T14:16:06;9.80;;;8.80;;
4375;SDS011;2202;50.866;12.750;2023-04-06T14:18:33;10.47;;;9.07;;
4375;SDS011;2202;50.866;12.750;2023-04-06T14:21:02;12.40;;;9.60;;
4375;SDS011;2202;50.866;12.750;2023-04-06T14:23:28;9.80;;;8.77;;
4375;SDS011;2202;50.866;12.750;2023-04-06T14:26:02;9.97;;;8.83;;
4375;SDS011;2202;50.866;12.750;2023-04-06T14:28:30;9.97;;;8.97;;
4375;SDS011;2202;50.866;12.750;2023-04-06T14:30:58;10.30;;;8.00;;
4375;SDS011;2202;50.866;12.750;2023-04-06T14:33:25;9.83;;;8.83;;
4375;SDS011;2202;50.866;12.750;2023-04-06T14:35:52;8.50;;;7.60;;
4375;SDS011;2202;50.866;12.750;2023-04-06T14:38:21;10.20;;;8.77;;
4375;SDS011;2202;50.866;12.750;2023-04-06T14:40:48;9.60;;;8.70;;
4375;SDS011;2202;50.866;12.750;2023-04-06T14:43:15;10.87;;;9.60;;
4375;SDS011;2202;50.866;12.750;2023-04-06T14:45:42;9.93;;;8.97;;
4375;SDS011;2202;50.866;12.750;2023-04-06T14:48:08;9.30;;;8.40;;
4375;SDS011;2202;50.866;12.750;2023-04-06T14:50:37;9.10;;;8.30;;